sensor_id;sensor_type;location;lat;lon;timestamp;pressure;altitude;pressure_sealevel;temperature
56286;BMP180;42191;47.562;9.686;2023-01-15T00:01:18;96010.00;;;15.10
56286;BMP180;42191;47.562;9.686;2023-01-15T00:03:44;96002.00;;;15.20
56286;BMP180;42191;47.562;9.686;2023-01-15T00:06:10;96015.00;;;15.30
56286;BMP180;42191;47.562;9.686;2023-01-15T00:08:36;96020.00;;;15.30
56286;BMP180;42191;47.562;9.686;2023-01-15T00:11:03;96032.00;;;15.40
56286;BMP180;42191;47.562;9.686;2023-01-15T00:13:29;96029.00;;;15.40
56286;BMP180;42191;47.562;9.686;2023-01-15T00:16:06;96028.00;;;15.50
56286;BMP180;42191;47.562;9.686;2023-01-15T00:18:33;96025.00;;;15.50
56286;BMP180;42191;47.562;9.686;2023-01-15T00:21:00;96007.00;;;15.60
56286;BMP180;42191;47.562;9.686;2023-01-15T00:23:27;96003.00;;;15.60
56286;BMP180;42191;47.562;9.686;2023-01-15T00:26:16;96009.00;;;15.70
56286;BMP180;42191;47.562;9.686;2023-01-15T00:29:02;96032.00;;;15.70
56286;BMP180;42191;47.562;9.686;2023-01-15T00:31:29;96003.00;;;15.70
56286;BMP180;42191;47.562;9.686;2023-01-15T00:33:55;96003.00;;;15.80
56286;BMP180;42191;47.562;9.686;2023-01-15T00:36:22;95979.00;;;15.80
56286;BMP180;42191;47.562;9.686;2023-01-15T00:38:48;95998.00;;;15.80
56286;BMP180;42191;47.562;9.686;2023-01-15T00:41:14;96005.00;;;15.90
56286;BMP180;42191;47.562;9.686;2023-01-15T00:43:40;95985.00;;;15.80
56286;BMP180;42191;47.562;9.686;2023-01-15T00:46:06;95974.00;;;15.80
56286;BMP180;42191;47.562;9.686;2023-01-15T00:48:34;95973.00;;;15.80
56286;BMP180;42191;47.562;9.686;2023-01-15T00:51:01;95971.00;;;15.70
56286;BMP180;42191;47.562;9.686;2023-01-15T00:53:27;95992.00;;;15.50
56286;BMP180;42191;47.562;9.686;2023-01-15T00:55:53;95973.00;;;15.40
56286;BMP180;42191;47.562;9.686;2023-01-15T00:58:19;95978.00;;;15.30
56286;BMP180;42191;47.562;9.686;2023-01-15T01:00:45;95983.00;;;15.10
56286;BMP180;42191;47.562;9.686;2023-01-15T01:03:11;95986.00;;;15.00
56286;BMP180;42191;47.562;9.686;2023-01-15T01:05:37;95994.00;;;14.90
56286;BMP180;42191;47.562;9.686;2023-01-15T01:08:04;95998.00;;;14.80
56286;BMP180;42191;47.562;9.686;2023-01-15T01:10:30;95993.00;;;14.70
56286;BMP180;42191;47.562;9.686;2023-01-15T01:12:56;95987.00;;;14.70
56286;BMP180;42191;47.562;9.686;2023-01-15T01:15:22;95999.00;;;14.60
56286;BMP180;42191;47.562;9.686;2023-01-15T01:17:50;96005.00;;;14.60
56286;BMP180;42191;47.562;9.686;2023-01-15T01:20:17;96003.00;;;14.50
56286;BMP180;42191;47.562;9.686;2023-01-15T01:22:43;95971.00;;;14.50
56286;BMP180;42191;47.562;9.686;2023-01-15T01:25:10;95984.00;;;14.40
56286;BMP180;42191;47.562;9.686;2023-01-15T01:27:36;95966.00;;;14.40
56286;BMP180;42191;47.562;9.686;2023-01-15T01:30:02;95979.00;;;14.40
56286;BMP180;42191;47.562;9.686;2023-01-15T01:32:28;95973.00;;;14.30
56286;BMP180;42191;47.562;9.686;2023-01-15T01:34:54;95966.00;;;14.30
56286;BMP180;42191;47.562;9.686;2023-01-15T01:37:20;95992.00;;;14.30
56286;BMP180;42191;47.562;9.686;2023-01-15T01:39:46;95998.00;;;14.20
56286;BMP180;42191;47.562;9.686;2023-01-15T01:42:15;95993.00;;;14.20
56286;BMP180;42191;47.562;9.686;2023-01-15T01:47:16;95975.00;;;14.10
56286;BMP180;42191;47.562;9.686;2023-01-15T01:49:50;95954.00;;;14.10
56286;BMP180;42191;47.562;9.686;2023-01-15T01:52:26;95957.00;;;14.10
56286;BMP180;42191;47.562;9.686;2023-01-15T01:54:52;95953.00;;;14.10
56286;BMP180;42191;47.562;9.686;2023-01-15T01:57:20;95961.00;;;14.10
56286;BMP180;42191;47.562;9.686;2023-01-15T01:59:48;95963.00;;;14.10
56286;BMP180;42191;47.562;9.686;2023-01-15T02:02:14;95938.00;;;14.10
56286;BMP180;42191;47.562;9.686;2023-01-15T02:04:42;95951.00;;;14.10
56286;BMP180;42191;47.562;9.686;2023-01-15T02:07:08;95955.00;;;14.10
56286;BMP180;42191;47.562;9.686;2023-01-15T02:09:34;95943.00;;;14.10
56286;BMP180;42191;47.562;9.686;2023-01-15T02:12:13;95963.00;;;14.10
56286;BMP180;42191;47.562;9.686;2023-01-15T02:14:58;95944.00;;;14.10
56286;BMP180;42191;47.562;9.686;2023-01-15T02:17:40;95960.00;;;14.10
56286;BMP180;42191;47.562;9.686;2023-01-15T02:25:51;95939.00;;;14.10
56286;BMP180;42191;47.562;9.686;2023-01-15T02:28:25;95931.00;;;14.00
56286;BMP180;42191;47.562;9.686;2023-01-15T02:31:09;95916.00;;;14.00
56286;BMP180;42191;47.562;9.686;2023-01-15T02:33:54;95913.00;;;14.00
56286;BMP180;42191;47.562;9.686;2023-01-15T02:36:23;95907.00;;;14.00
56286;BMP180;42191;47.562;9.686;2023-01-15T02:38:53;95918.00;;;14.00
56286;BMP180;42191;47.562;9.686;2023-01-15T02:41:23;95904.00;;;14.00
56286;BMP180;42191;47.562;9.686;2023-01-15T02:43:53;95905.00;;;14.00
56286;BMP180;42191;47.562;9.686;2023-01-15T02:46:24;95899.00;;;14.00
56286;BMP180;42191;47.562;9.686;2023-01-15T02:48:54;95895.00;;;14.00
56286;BMP180;42191;47.562;9.686;2023-01-15T02:51:24;95888.00;;;14.00
56286;BMP180;42191;47.562;9.686;2023-01-15T02:53:54;95886.00;;;14.00
56286;BMP180;42191;47.562;9.686;2023-01-15T02:56:24;95891.00;;;14.10
56286;BMP180;42191;47.562;9.686;2023-01-15T02:58:55;95871.00;;;14.10
56286;BMP180;42191;47.562;9.686;2023-01-15T03:01:27;95869.00;;;14.10
56286;BMP180;42191;47.562;9.686;2023-01-15T03:04:03;95862.00;;;14.10
56286;BMP180;42191;47.562;9.686;2023-01-15T03:06:59;95866.00;;;14.10
56286;BMP180;42191;47.562;9.686;2023-01-15T03:09:27;95863.00;;;14.10
56286;BMP180;42191;47.562;9.686;2023-01-15T03:14:51;95846.00;;;14.10
56286;BMP180;42191;47.562;9.686;2023-01-15T03:17:27;95842.00;;;14.10
56286;BMP180;42191;47.562;9.686;2023-01-15T03:20:05;95834.00;;;14.10
56286;BMP180;42191;47.562;9.686;2023-01-15T03:22:38;95824.00;;;14.10
56286;BMP180;42191;47.562;9.686;2023-01-15T03:25:23;95821.00;;;14.10
56286;BMP180;42191;47.562;9.686;2023-01-15T03:27:52;95849.00;;;14.00
56286;BMP180;42191;47.562;9.686;2023-01-15T03:30:21;95827.00;;;14.00
56286;BMP180;42191;47.562;9.686;2023-01-15T03:32:48;95836.00;;;14.00
56286;BMP180;42191;47.562;9.686;2023-01-15T03:38:23;95847.00;;;14.00
56286;BMP180;42191;47.562;9.686;2023-01-15T03:43:25;95833.00;;;14.00
56286;BMP180;42191;47.562;9.686;2023-01-15T03:46:13;95848.00;;;14.00
56286;BMP180;42191;47.562;9.686;2023-01-15T03:48:59;95836.00;;;13.90
56286;BMP180;42191;47.562;9.686;2023-01-15T03:54:17;95840.00;;;13.90
56286;BMP180;42191;47.562;9.686;2023-01-15T03:57:00;95843.00;;;13.80
56286;BMP180;42191;47.562;9.686;2023-01-15T03:59:39;95850.00;;;13.80
56286;BMP180;42191;47.562;9.686;2023-01-15T04:02:08;95839.00;;;13.80
56286;BMP180;42191;47.562;9.686;2023-01-15T04:04:37;95837.00;;;13.80
56286;BMP180;42191;47.562;9.686;2023-01-15T04:07:04;95822.00;;;13.80
56286;BMP180;42191;47.562;9.686;2023-01-15T04:09:30;95807.00;;;13.80
56286;BMP180;42191;47.562;9.686;2023-01-15T04:12:00;95805.00;;;13.80
56286;BMP180;42191;47.562;9.686;2023-01-15T04:14:29;95822.00;;;13.80
56286;BMP180;42191;47.562;9.686;2023-01-15T04:16:55;95815.00;;;13.80
56286;BMP180;42191;47.562;9.686;2023-01-15T04:19:22;95825.00;;;13.80
56286;BMP180;42191;47.562;9.686;2023-01-15T04:21:48;95835.00;;;13.80
56286;BMP180;42191;47.562;9.686;2023-01-15T04:24:14;95839.00;;;13.80
56286;BMP180;42191;47.562;9.686;2023-01-15T04:26:40;95804.00;;;13.80
56286;BMP180;42191;47.562;9.686;2023-01-15T04:29:06;95858.00;;;13.80
56286;BMP180;42191;47.562;9.686;2023-01-15T04:31:32;95816.00;;;13.80
56286;BMP180;42191;47.562;9.686;2023-01-15T04:34:01;95818.00;;;13.80
56286;BMP180;42191;47.562;9.686;2023-01-15T04:36:27;95829.00;;;13.80
56286;BMP180;42191;47.562;9.686;2023-01-15T04:38:54;95841.00;;;13.80
56286;BMP180;42191;47.562;9.686;2023-01-15T04:41:22;95832.00;;;13.80
56286;BMP180;42191;47.562;9.686;2023-01-15T04:44:07;95843.00;;;13.80
56286;BMP180;42191;47.562;9.686;2023-01-15T04:46:36;95833.00;;;13.80
56286;BMP180;42191;47.562;9.686;2023-01-15T04:49:04;95842.00;;;13.80
56286;BMP180;42191;47.562;9.686;2023-01-15T04:51:30;95844.00;;;13.80
56286;BMP180;42191;47.562;9.686;2023-01-15T04:53:56;95842.00;;;13.70
56286;BMP180;42191;47.562;9.686;2023-01-15T04:56:23;95847.00;;;13.60
56286;BMP180;42191;47.562;9.686;2023-01-15T04:58:49;95857.00;;;13.60
56286;BMP180;42191;47.562;9.686;2023-01-15T05:01:16;95882.00;;;13.50
56286;BMP180;42191;47.562;9.686;2023-01-15T05:03:42;95889.00;;;13.50
56286;BMP180;42191;47.562;9.686;2023-01-15T05:06:09;95881.00;;;13.50
56286;BMP180;42191;47.562;9.686;2023-01-15T05:08:35;95876.00;;;13.50
56286;BMP180;42191;47.562;9.686;2023-01-15T05:11:02;95861.00;;;13.40
56286;BMP180;42191;47.562;9.686;2023-01-15T05:13:29;95846.00;;;13.40
56286;BMP180;42191;47.562;9.686;2023-01-15T05:18:40;95844.00;;;13.40
56286;BMP180;42191;47.562;9.686;2023-01-15T05:21:11;95837.00;;;13.40
56286;BMP180;42191;47.562;9.686;2023-01-15T05:23:38;95855.00;;;13.40
56286;BMP180;42191;47.562;9.686;2023-01-15T05:26:04;95866.00;;;13.40
56286;BMP180;42191;47.562;9.686;2023-01-15T05:28:30;95865.00;;;13.30
56286;BMP180;42191;47.562;9.686;2023-01-15T05:30:56;95844.00;;;13.30
56286;BMP180;42191;47.562;9.686;2023-01-15T05:33:22;95851.00;;;13.30
56286;BMP180;42191;47.562;9.686;2023-01-15T05:35:48;95835.00;;;13.30
56286;BMP180;42191;47.562;9.686;2023-01-15T05:38:14;95835.00;;;13.30
56286;BMP180;42191;47.562;9.686;2023-01-15T05:40:40;95833.00;;;13.30
56286;BMP180;42191;47.562;9.686;2023-01-15T05:43:06;95833.00;;;13.30
56286;BMP180;42191;47.562;9.686;2023-01-15T05:45:34;95832.00;;;13.20
56286;BMP180;42191;47.562;9.686;2023-01-15T05:48:01;95845.00;;;13.30
56286;BMP180;42191;47.562;9.686;2023-01-15T05:50:27;95848.00;;;13.20
56286;BMP180;42191;47.562;9.686;2023-01-15T05:52:53;95858.00;;;13.20
56286;BMP180;42191;47.562;9.686;2023-01-15T05:55:19;95853.00;;;13.20
56286;BMP180;42191;47.562;9.686;2023-01-15T05:57:45;95840.00;;;13.20
56286;BMP180;42191;47.562;9.686;2023-01-15T06:00:12;95832.00;;;13.20
56286;BMP180;42191;47.562;9.686;2023-01-15T06:02:38;95845.00;;;13.20
56286;BMP180;42191;47.562;9.686;2023-01-15T06:05:04;95858.00;;;13.20
56286;BMP180;42191;47.562;9.686;2023-01-15T06:07:30;95850.00;;;13.20
56286;BMP180;42191;47.562;9.686;2023-01-15T06:09:57;95845.00;;;13.10
56286;BMP180;42191;47.562;9.686;2023-01-15T06:12:23;95841.00;;;13.10
56286;BMP180;42191;47.562;9.686;2023-01-15T06:14:49;95852.00;;;13.10
56286;BMP180;42191;47.562;9.686;2023-01-15T06:17:15;95850.00;;;13.10
56286;BMP180;42191;47.562;9.686;2023-01-15T06:19:41;95849.00;;;13.10
56286;BMP180;42191;47.562;9.686;2023-01-15T06:22:07;95856.00;;;13.10
56286;BMP180;42191;47.562;9.686;2023-01-15T06:24:33;95855.00;;;13.10
56286;BMP180;42191;47.562;9.686;2023-01-15T06:26:59;95855.00;;;13.10
56286;BMP180;42191;47.562;9.686;2023-01-15T06:29:26;95854.00;;;13.10
56286;BMP180;42191;47.562;9.686;2023-01-15T06:31:52;95846.00;;;13.10
56286;BMP180;42191;47.562;9.686;2023-01-15T06:34:18;95827.00;;;13.00
56286;BMP180;42191;47.562;9.686;2023-01-15T06:36:44;95834.00;;;13.00
56286;BMP180;42191;47.562;9.686;2023-01-15T06:39:10;95832.00;;;13.00
56286;BMP180;42191;47.562;9.686;2023-01-15T06:41:36;95829.00;;;13.00
56286;BMP180;42191;47.562;9.686;2023-01-15T06:44:21;95818.00;;;13.00
56286;BMP180;42191;47.562;9.686;2023-01-15T06:47:17;95817.00;;;13.00
56286;BMP180;42191;47.562;9.686;2023-01-15T06:49:49;95814.00;;;13.00
56286;BMP180;42191;47.562;9.686;2023-01-15T06:52:15;95800.00;;;13.00
56286;BMP180;42191;47.562;9.686;2023-01-15T06:54:41;95813.00;;;13.00
56286;BMP180;42191;47.562;9.686;2023-01-15T06:57:07;95792.00;;;13.00
56286;BMP180;42191;47.562;9.686;2023-01-15T06:59:33;95805.00;;;13.00
56286;BMP180;42191;47.562;9.686;2023-01-15T07:02:00;95800.00;;;13.00
56286;BMP180;42191;47.562;9.686;2023-01-15T07:04:26;95803.00;;;13.00
56286;BMP180;42191;47.562;9.686;2023-01-15T07:06:52;95800.00;;;13.00
56286;BMP180;42191;47.562;9.686;2023-01-15T07:09:18;95810.00;;;13.00
56286;BMP180;42191;47.562;9.686;2023-01-15T07:11:44;95807.00;;;13.00
56286;BMP180;42191;47.562;9.686;2023-01-15T07:14:21;95799.00;;;13.00
56286;BMP180;42191;47.562;9.686;2023-01-15T07:16:48;95810.00;;;13.00
56286;BMP180;42191;47.562;9.686;2023-01-15T07:19:14;95811.00;;;13.00
56286;BMP180;42191;47.562;9.686;2023-01-15T07:21:40;95808.00;;;13.00
56286;BMP180;42191;47.562;9.686;2023-01-15T07:24:07;95792.00;;;13.10
56286;BMP180;42191;47.562;9.686;2023-01-15T07:26:34;95796.00;;;13.10
56286;BMP180;42191;47.562;9.686;2023-01-15T07:29:00;95789.00;;;13.10
56286;BMP180;42191;47.562;9.686;2023-01-15T07:31:26;95791.00;;;13.20
56286;BMP180;42191;47.562;9.686;2023-01-15T07:33:52;95776.00;;;13.20
56286;BMP180;42191;47.562;9.686;2023-01-15T07:36:20;95781.00;;;13.30
56286;BMP180;42191;47.562;9.686;2023-01-15T07:38:46;95782.00;;;13.40
56286;BMP180;42191;47.562;9.686;2023-01-15T07:41:12;95785.00;;;13.40
56286;BMP180;42191;47.562;9.686;2023-01-15T07:43:57;95775.00;;;13.50
56286;BMP180;42191;47.562;9.686;2023-01-15T07:46:42;95753.00;;;13.50
56286;BMP180;42191;47.562;9.686;2023-01-15T07:49:26;95759.00;;;13.50
56286;BMP180;42191;47.562;9.686;2023-01-15T07:52:12;95752.00;;;13.50
56286;BMP180;42191;47.562;9.686;2023-01-15T07:54:38;95755.00;;;13.60
56286;BMP180;42191;47.562;9.686;2023-01-15T07:57:05;95746.00;;;13.60
56286;BMP180;42191;47.562;9.686;2023-01-15T07:59:32;95745.00;;;13.60
56286;BMP180;42191;47.562;9.686;2023-01-15T08:01:58;95752.00;;;13.70
56286;BMP180;42191;47.562;9.686;2023-01-15T08:04:24;95748.00;;;13.70
56286;BMP180;42191;47.562;9.686;2023-01-15T08:06:50;95747.00;;;13.70
56286;BMP180;42191;47.562;9.686;2023-01-15T08:09:16;95746.00;;;13.80
56286;BMP180;42191;47.562;9.686;2023-01-15T08:11:42;95749.00;;;13.80
56286;BMP180;42191;47.562;9.686;2023-01-15T08:14:27;95734.00;;;13.80
56286;BMP180;42191;47.562;9.686;2023-01-15T08:17:11;95730.00;;;13.90
56286;BMP180;42191;47.562;9.686;2023-01-15T08:19:37;95732.00;;;13.90
56286;BMP180;42191;47.562;9.686;2023-01-15T08:22:03;95732.00;;;14.00
56286;BMP180;42191;47.562;9.686;2023-01-15T08:24:29;95720.00;;;14.00
56286;BMP180;42191;47.562;9.686;2023-01-15T08:26:56;95703.00;;;14.00
56286;BMP180;42191;47.562;9.686;2023-01-15T08:29:22;95715.00;;;14.10
56286;BMP180;42191;47.562;9.686;2023-01-15T08:31:48;95705.00;;;14.10
56286;BMP180;42191;47.562;9.686;2023-01-15T08:34:14;95708.00;;;14.20
56286;BMP180;42191;47.562;9.686;2023-01-15T08:36:40;95715.00;;;14.20
56286;BMP180;42191;47.562;9.686;2023-01-15T08:39:06;95715.00;;;14.30
56286;BMP180;42191;47.562;9.686;2023-01-15T08:41:32;95709.00;;;14.40
56286;BMP180;42191;47.562;9.686;2023-01-15T08:43:58;95719.00;;;14.40
56286;BMP180;42191;47.562;9.686;2023-01-15T08:46:25;95727.00;;;14.50
56286;BMP180;42191;47.562;9.686;2023-01-15T08:48:51;95725.00;;;14.50
56286;BMP180;42191;47.562;9.686;2023-01-15T08:51:18;95707.00;;;14.60
56286;BMP180;42191;47.562;9.686;2023-01-15T08:53:45;95722.00;;;14.60
56286;BMP180;42191;47.562;9.686;2023-01-15T08:56:15;95722.00;;;14.70
56286;BMP180;42191;47.562;9.686;2023-01-15T08:58:42;95719.00;;;14.70
56286;BMP180;42191;47.562;9.686;2023-01-15T09:01:09;95702.00;;;14.80
56286;BMP180;42191;47.562;9.686;2023-01-15T09:03:37;95722.00;;;14.80
56286;BMP180;42191;47.562;9.686;2023-01-15T09:06:04;95738.00;;;14.80
56286;BMP180;42191;47.562;9.686;2023-01-15T09:08:31;95780.00;;;14.80
56286;BMP180;42191;47.562;9.686;2023-01-15T09:11:02;95830.00;;;14.90
56286;BMP180;42191;47.562;9.686;2023-01-15T09:13:29;95815.00;;;14.90
56286;BMP180;42191;47.562;9.686;2023-01-15T09:15:59;95837.00;;;15.00
56286;BMP180;42191;47.562;9.686;2023-01-15T09:18:26;95842.00;;;15.00
56286;BMP180;42191;47.562;9.686;2023-01-15T09:20:52;95841.00;;;15.00
56286;BMP180;42191;47.562;9.686;2023-01-15T09:23:18;95857.00;;;15.00
56286;BMP180;42191;47.562;9.686;2023-01-15T09:28:21;95863.00;;;15.00
56286;BMP180;42191;47.562;9.686;2023-01-15T09:30:47;95880.00;;;15.00
56286;BMP180;42191;47.562;9.686;2023-01-15T09:33:13;95908.00;;;15.00
56286;BMP180;42191;47.562;9.686;2023-01-15T09:35:41;95894.00;;;14.90
56286;BMP180;42191;47.562;9.686;2023-01-15T09:38:10;95894.00;;;14.80
56286;BMP180;42191;47.562;9.686;2023-01-15T09:40:47;95901.00;;;14.70
56286;BMP180;42191;47.562;9.686;2023-01-15T09:43:49;95902.00;;;14.60
56286;BMP180;42191;47.562;9.686;2023-01-15T09:46:39;95948.00;;;14.50
56286;BMP180;42191;47.562;9.686;2023-01-15T09:49:13;95937.00;;;14.50
56286;BMP180;42191;47.562;9.686;2023-01-15T09:52:05;95936.00;;;14.40
56286;BMP180;42191;47.562;9.686;2023-01-15T09:57:13;95952.00;;;14.20
56286;BMP180;42191;47.562;9.686;2023-01-15T09:59:45;95982.00;;;14.10
56286;BMP180;42191;47.562;9.686;2023-01-15T10:02:24;95972.00;;;14.00
56286;BMP180;42191;47.562;9.686;2023-01-15T10:05:20;95974.00;;;13.90
56286;BMP180;42191;47.562;9.686;2023-01-15T10:08:08;95979.00;;;13.80
56286;BMP180;42191;47.562;9.686;2023-01-15T10:10:45;95992.00;;;13.60
56286;BMP180;42191;47.562;9.686;2023-01-15T10:13:30;95994.00;;;13.50
56286;BMP180;42191;47.562;9.686;2023-01-15T10:16:00;96007.00;;;13.30
56286;BMP180;42191;47.562;9.686;2023-01-15T10:18:27;96031.00;;;13.20
56286;BMP180;42191;47.562;9.686;2023-01-15T10:21:14;96049.00;;;13.10
56286;BMP180;42191;47.562;9.686;2023-01-15T10:23:57;96013.00;;;13.00
56286;BMP180;42191;47.562;9.686;2023-01-15T10:26:35;96034.00;;;12.90
56286;BMP180;42191;47.562;9.686;2023-01-15T10:35:08;96047.00;;;12.50
56286;BMP180;42191;47.562;9.686;2023-01-15T10:38:15;96058.00;;;12.40
56286;BMP180;42191;47.562;9.686;2023-01-15T10:41:02;96060.00;;;12.20
56286;BMP180;42191;47.562;9.686;2023-01-15T10:46:09;96093.00;;;12.00
56286;BMP180;42191;47.562;9.686;2023-01-15T10:48:55;96101.00;;;11.80
56286;BMP180;42191;47.562;9.686;2023-01-15T10:51:41;96102.00;;;11.60
56286;BMP180;42191;47.562;9.686;2023-01-15T10:59:54;96121.00;;;11.20
56286;BMP180;42191;47.562;9.686;2023-01-15T11:02:44;96134.00;;;11.10
56286;BMP180;42191;47.562;9.686;2023-01-15T11:05:15;96155.00;;;11.00
56286;BMP180;42191;47.562;9.686;2023-01-15T11:10:12;96183.00;;;10.80
56286;BMP180;42191;47.562;9.686;2023-01-15T11:12:59;96203.00;;;10.80
56286;BMP180;42191;47.562;9.686;2023-01-15T11:15:49;96212.00;;;10.60
56286;BMP180;42191;47.562;9.686;2023-01-15T11:18:42;96249.00;;;10.50
56286;BMP180;42191;47.562;9.686;2023-01-15T11:21:28;96234.00;;;10.40
56286;BMP180;42191;47.562;9.686;2023-01-15T11:23:56;96238.00;;;10.40
56286;BMP180;42191;47.562;9.686;2023-01-15T11:26:30;96250.00;;;10.30
56286;BMP180;42191;47.562;9.686;2023-01-15T11:28:58;96261.00;;;10.20
56286;BMP180;42191;47.562;9.686;2023-01-15T11:31:36;96266.00;;;10.20
56286;BMP180;42191;47.562;9.686;2023-01-15T11:34:05;96277.00;;;10.10
56286;BMP180;42191;47.562;9.686;2023-01-15T11:36:32;96290.00;;;10.10
56286;BMP180;42191;47.562;9.686;2023-01-15T11:38:58;96300.00;;;10.00
56286;BMP180;42191;47.562;9.686;2023-01-15T11:41:33;96308.00;;;10.00
56286;BMP180;42191;47.562;9.686;2023-01-15T11:44:20;96307.00;;;9.90
56286;BMP180;42191;47.562;9.686;2023-01-15T11:47:16;96319.00;;;9.90
56286;BMP180;42191;47.562;9.686;2023-01-15T11:50:01;96352.00;;;9.80
56286;BMP180;42191;47.562;9.686;2023-01-15T11:52:51;96348.00;;;9.70
56286;BMP180;42191;47.562;9.686;2023-01-15T11:55:22;96353.00;;;9.70
56286;BMP180;42191;47.562;9.686;2023-01-15T11:57:50;96372.00;;;9.60
56286;BMP180;42191;47.562;9.686;2023-01-15T12:02:48;96356.00;;;9.50
56286;BMP180;42191;47.562;9.686;2023-01-15T12:05:25;96366.00;;;9.50
56286;BMP180;42191;47.562;9.686;2023-01-15T12:07:54;96376.00;;;9.40
56286;BMP180;42191;47.562;9.686;2023-01-15T12:10:24;96419.00;;;9.30
56286;BMP180;42191;47.562;9.686;2023-01-15T12:13:28;96406.00;;;9.20
56286;BMP180;42191;47.562;9.686;2023-01-15T12:16:28;96395.00;;;9.20
56286;BMP180;42191;47.562;9.686;2023-01-15T12:19:00;96388.00;;;9.10
56286;BMP180;42191;47.562;9.686;2023-01-15T12:24:39;96405.00;;;9.10
56286;BMP180;42191;47.562;9.686;2023-01-15T12:27:43;96403.00;;;9.00
56286;BMP180;42191;47.562;9.686;2023-01-15T12:35:36;96439.00;;;8.90
56286;BMP180;42191;47.562;9.686;2023-01-15T12:38:17;96443.00;;;8.80
56286;BMP180;42191;47.562;9.686;2023-01-15T12:41:22;96445.00;;;8.80
56286;BMP180;42191;47.562;9.686;2023-01-15T12:43:55;96453.00;;;8.70
56286;BMP180;42191;47.562;9.686;2023-01-15T12:46:43;96459.00;;;8.70
56286;BMP180;42191;47.562;9.686;2023-01-15T12:49:31;96466.00;;;8.70
56286;BMP180;42191;47.562;9.686;2023-01-15T12:52:09;96458.00;;;8.60
56286;BMP180;42191;47.562;9.686;2023-01-15T12:55:00;96466.00;;;8.60
56286;BMP180;42191;47.562;9.686;2023-01-15T12:57:33;96479.00;;;8.60
56286;BMP180;42191;47.562;9.686;2023-01-15T13:00:14;96490.00;;;8.60
56286;BMP180;42191;47.562;9.686;2023-01-15T13:05:55;96479.00;;;8.50
56286;BMP180;42191;47.562;9.686;2023-01-15T13:08:24;96483.00;;;8.50
56286;BMP180;42191;47.562;9.686;2023-01-15T13:10:52;96477.00;;;8.50
56286;BMP180;42191;47.562;9.686;2023-01-15T13:13:21;96469.00;;;8.40
56286;BMP180;42191;47.562;9.686;2023-01-15T13:16:07;96478.00;;;8.40
56286;BMP180;42191;47.562;9.686;2023-01-15T13:21:35;96490.00;;;8.40
56286;BMP180;42191;47.562;9.686;2023-01-15T13:24:06;96497.00;;;8.40
56286;BMP180;42191;47.562;9.686;2023-01-15T13:26:48;96498.00;;;8.40
56286;BMP180;42191;47.562;9.686;2023-01-15T13:29:34;96508.00;;;8.40
56286;BMP180;42191;47.562;9.686;2023-01-15T13:32:38;96496.00;;;8.30
56286;BMP180;42191;47.562;9.686;2023-01-15T13:35:18;96499.00;;;8.30
56286;BMP180;42191;47.562;9.686;2023-01-15T13:37:51;96534.00;;;8.30
56286;BMP180;42191;47.562;9.686;2023-01-15T13:40:38;96512.00;;;8.30
56286;BMP180;42191;47.562;9.686;2023-01-15T13:43:07;96518.00;;;8.30
56286;BMP180;42191;47.562;9.686;2023-01-15T13:45:35;96487.00;;;8.30
56286;BMP180;42191;47.562;9.686;2023-01-15T13:50:41;96505.00;;;8.40
56286;BMP180;42191;47.562;9.686;2023-01-15T13:55:51;96506.00;;;8.40
56286;BMP180;42191;47.562;9.686;2023-01-15T13:58:24;96499.00;;;8.40
56286;BMP180;42191;47.562;9.686;2023-01-15T14:03:32;96504.00;;;8.50
56286;BMP180;42191;47.562;9.686;2023-01-15T14:06:01;96504.00;;;8.50
56286;BMP180;42191;47.562;9.686;2023-01-15T14:08:39;96498.00;;;8.50
56286;BMP180;42191;47.562;9.686;2023-01-15T14:22:39;96491.00;;;8.60
56286;BMP180;42191;47.562;9.686;2023-01-15T14:25:41;96496.00;;;8.60
56286;BMP180;42191;47.562;9.686;2023-01-15T14:31:02;96498.00;;;8.70
56286;BMP180;42191;47.562;9.686;2023-01-15T14:36:38;96500.00;;;8.70
56286;BMP180;42191;47.562;9.686;2023-01-15T14:39:19;96499.00;;;8.70
56286;BMP180;42191;47.562;9.686;2023-01-15T14:41:56;96511.00;;;8.80
56286;BMP180;42191;47.562;9.686;2023-01-15T14:44:43;96512.00;;;8.80
56286;BMP180;42191;47.562;9.686;2023-01-15T14:47:23;96504.00;;;8.80
56286;BMP180;42191;47.562;9.686;2023-01-15T14:50:00;96510.00;;;8.80
56286;BMP180;42191;47.562;9.686;2023-01-15T14:52:27;96502.00;;;8.80
56286;BMP180;42191;47.562;9.686;2023-01-15T14:54:54;96524.00;;;8.80
56286;BMP180;42191;47.562;9.686;2023-01-15T14:57:22;96514.00;;;8.80
56286;BMP180;42191;47.562;9.686;2023-01-15T14:59:53;96531.00;;;8.80
56286;BMP180;42191;47.562;9.686;2023-01-15T15:02:23;96524.00;;;8.80
56286;BMP180;42191;47.562;9.686;2023-01-15T15:04:57;96522.00;;;8.80
56286;BMP180;42191;47.562;9.686;2023-01-15T15:07:26;96533.00;;;8.90
56286;BMP180;42191;47.562;9.686;2023-01-15T15:23:25;96544.00;;;9.00
56286;BMP180;42191;47.562;9.686;2023-01-15T15:25:58;96549.00;;;9.00
56286;BMP180;42191;47.562;9.686;2023-01-15T15:28:24;96550.00;;;9.00
56286;BMP180;42191;47.562;9.686;2023-01-15T15:30:51;96545.00;;;9.10
56286;BMP180;42191;47.562;9.686;2023-01-15T15:33:22;96546.00;;;9.10
56286;BMP180;42191;47.562;9.686;2023-01-15T15:35:58;96546.00;;;9.10
56286;BMP180;42191;47.562;9.686;2023-01-15T15:38:25;96544.00;;;9.20
56286;BMP180;42191;47.562;9.686;2023-01-15T15:40:58;96531.00;;;9.20
56286;BMP180;42191;47.562;9.686;2023-01-15T15:43:28;96541.00;;;9.20
56286;BMP180;42191;47.562;9.686;2023-01-15T15:46:29;96531.00;;;9.20
56286;BMP180;42191;47.562;9.686;2023-01-15T15:49:14;96537.00;;;9.20
56286;BMP180;42191;47.562;9.686;2023-01-15T15:51:51;96524.00;;;9.20
56286;BMP180;42191;47.562;9.686;2023-01-15T15:54:18;96532.00;;;9.20
56286;BMP180;42191;47.562;9.686;2023-01-15T15:57:04;96533.00;;;9.30
56286;BMP180;42191;47.562;9.686;2023-01-15T16:04:58;96531.00;;;9.40
56286;BMP180;42191;47.562;9.686;2023-01-15T16:07:30;96523.00;;;9.30
56286;BMP180;42191;47.562;9.686;2023-01-15T16:10:24;96527.00;;;9.40
56286;BMP180;42191;47.562;9.686;2023-01-15T16:12:52;96517.00;;;9.40
56286;BMP180;42191;47.562;9.686;2023-01-15T16:15:27;96517.00;;;9.30
56286;BMP180;42191;47.562;9.686;2023-01-15T16:17:57;96517.00;;;9.40
56286;BMP180;42191;47.562;9.686;2023-01-15T16:20:25;96524.00;;;9.30
56286;BMP180;42191;47.562;9.686;2023-01-15T16:22:55;96511.00;;;9.30
56286;BMP180;42191;47.562;9.686;2023-01-15T16:25:41;96523.00;;;9.20